Bellefountain, Indiana
Current Conditions -  °F | °C
As of 1:53 AM on Wednesday 22 Oct 2014 (Local Time) from KMIE Reporting Station
Broken Clouds Broken Clouds  
Wind Chill: 40°   Ceiling: 3900
Heat Index: 44°   Visibility: 10mi
Dew Point: 36°   Wind: 7mph
Humidity: 73%   Direction: 30°NNE
Pressure: 30.21"   Gusts: NA
Location:  40.4312°N, 85.0058°W
Report Text: KMIE 220553Z AUTO 03006KT 10SM BKN039 07/02 A3021 RMK AO2 SLP228 T00670022 10106 20067 50001
Loading
Personal Weather Stations






























Interactive Weather Map New forecast layout! Learn more

10-Day Weather Forecast

Advertisements
Track Severe Weather on mobile